Time;durP1;ratioP1;P1;durP2;ratioP2;P2;SDS_P1;SDS_P2;PMS_P1;PMS_P2;Temp;Humidity;BMP_temperature;BMP_pressure;BME280_temperature;BME280_humidity;BME280_pressure;Samples;Min_cycle;Max_cycle;Signal;HPM_P1;HPM_P2
2022/10/26 00:00:32;;;;;;;16.70;13.70;;;;;;;15.25;73.50;100237.52;1758004;80;21744;-72
2022/10/26 00:02:59;;;;;;;14.83;12.57;;;;;;;15.21;73.51;100239.21;1757514;81;22396;-72
2022/10/26 00:05:26;;;;;;;14.37;9.50;;;;;;;15.18;73.54;100243.05;1746510;80;21688;-72
2022/10/26 00:07:54;;;;;;;11.27;9.00;;;;;;;15.12;73.46;100245.01;1757429;80;21729;-72
2022/10/26 00:10:20;;;;;;;9.27;7.37;;;;;;;15.09;73.46;100237.53;1754371;80;21721;-73
2022/10/26 00:12:49;;;;;;;8.20;6.93;;;;;;;15.07;73.40;100237.56;1788270;80;22279;-72
2022/10/26 00:15:18;;;;;;;9.67;6.67;;;;;;;15.02;73.39;100243.84;1755419;80;23068;-72
2022/10/26 00:17:47;;;;;;;7.73;6.40;;;;;;;14.99;73.33;100253.83;1755487;80;21759;-73
2022/10/26 00:20:14;;;;;;;7.80;6.10;;;;;;;14.99;73.33;100253.83;1762294;80;22301;-72
2022/10/26 00:22:41;;;;;;;7.97;6.37;;;;;;;14.98;73.37;100250.35;1739631;80;22202;-72
2022/10/26 00:25:08;;;;;;;7.00;6.00;;;;;;;14.93;73.44;100261.17;1762075;80;21636;-72
2022/10/26 00:27:35;;;;;;;8.07;6.60;;;;;;;14.93;73.44;100261.17;1727476;83;22097;-72
2022/10/26 00:30:05;;;;;;;7.07;6.10;;;;;;;14.89;73.50;100256.14;1756760;81;21769;-72
2022/10/26 00:32:33;;;;;;;8.37;6.40;;;;;;;14.90;73.51;100254.24;1754470;80;21562;-72
2022/10/26 00:35:00;;;;;;;7.87;6.47;;;;;;;14.92;73.62;100254.20;1788707;80;21625;-72
2022/10/26 00:37:27;;;;;;;8.77;7.13;;;;;;;14.97;73.45;100264.08;1788311;79;21684;-72
2022/10/26 00:39:55;;;;;;;10.77;8.17;;;;;;;14.97;73.45;100264.08;1756768;80;22103;-72
2022/10/26 00:42:23;;;;;;;9.33;7.93;;;;;;;14.97;73.70;100260.86;1787504;79;23182;-73
2022/10/26 00:44:56;;;;;;;10.17;7.70;;;;;;;14.99;73.59;100253.83;1788732;79;22024;-73
2022/10/26 00:47:37;;;;;;;10.43;8.20;;;;;;;15.01;73.94;100264.56;1757765;80;22035;-73
2022/10/26 00:50:12;;;;;;;10.45;8.78;;;;;;;15.01;73.94;100264.56;1787902;79;22295;-73
2022/10/26 00:52:39;;;;;;;9.33;8.13;;;;;;;14.99;73.47;100264.59;1755705;81;21007;-73
2022/10/26 00:55:06;;;;;;;9.17;7.90;;;;;;;14.99;73.47;100264.59;1749478;79;21543;-73
2022/10/26 00:57:35;;;;;;;11.10;7.60;;;;;;;14.96;73.64;100261.94;1753847;80;21751;-73
2022/10/26 01:00:05;;;;;;;9.67;7.87;;;;;;;14.93;73.64;100266.55;1778526;78;21603;-73
2022/10/26 01:02:33;;;;;;;10.33;7.13;;;;;;;14.92;73.67;100267.66;1786387;80;21717;-73
2022/10/26 01:05:02;;;;;;;8.20;7.13;;;;;;;14.89;73.29;100267.45;1762562;79;21642;-73
2022/10/26 01:07:30;;;;;;;8.73;7.53;;;;;;;14.88;73.64;100272.58;1714720;80;21699;-74
2022/10/26 01:09:57;;;;;;;11.13;7.20;;;;;;;14.88;73.64;100272.58;1757271;80;21705;-73
2022/10/26 01:12:24;;;;;;;8.70;7.07;;;;;;;14.85;73.77;100273.95;1758625;80;21669;-73
2022/10/26 01:14:52;;;;;;;7.43;6.63;;;;;;;14.85;73.48;100273.95;1754617;80;22098;-73
2022/10/26 01:17:58;;;;;;;7.87;6.83;;;;;;;14.82;73.73;100278.56;1765246;80;21613;-74
2022/10/26 01:20:45;;;;;;;8.43;7.13;;;;;;;14.80;73.52;100272.67;1785916;78;21712;-74
2022/10/26 01:23:18;;;;;;;7.80;6.90;;;;;;;14.79;73.88;100276.46;1668959;80;21597;-71
2022/10/26 01:26:28;;;;;;;10.30;8.10;;;;;;;14.81;73.56;100285.05;1788349;80;21489;-72
2022/10/26 01:29:14;;;;;;;11.63;8.00;;;;;;;14.81;73.56;100285.05;1708575;78;21612;-73
2022/10/26 01:31:47;;;;;;;9.20;7.50;;;;;;;14.80;73.58;100279.95;1789591;78;22312;-72
2022/10/26 01:34:33;;;;;;;12.73;8.50;;;;;;;14.82;73.52;100283.16;1786494;78;21430;-73
2022/10/26 01:37:07;;;;;;;10.17;8.50;;;;;;;14.80;73.48;100276.70;1786209;78;22167;-72
2022/10/26 01:39:47;;;;;;;9.07;7.70;;;;;;;14.81;73.49;100277.50;1757746;81;22028;-73
2022/10/26 01:42:15;;;;;;;10.77;8.73;;;;;;;14.78;73.61;100280.25;1756696;81;22154;-73
2022/10/26 01:45:02;;;;;;;10.33;8.43;;;;;;;14.78;73.61;100280.25;1735607;81;22021;-73
2022/10/26 01:47:29;;;;;;;9.27;8.13;;;;;;;14.76;73.67;100286.45;1758073;81;21515;-73
2022/10/26 01:49:58;;;;;;;10.20;8.63;;;;;;;14.76;73.67;100286.45;1764199;81;21896;-73
2022/10/26 01:52:26;;;;;;;12.93;9.13;;;;;;;14.74;73.68;100282.72;1755362;80;21777;-72
2022/10/26 01:55:25;;;;;;;9.97;8.13;;;;;;;14.75;73.76;100285.66;1740021;80;21671;-72
2022/10/26 01:57:52;;;;;;;9.60;8.17;;;;;;;14.73;73.85;100284.34;1770465;80;21605;-72
2022/10/26 02:00:20;;;;;;;9.60;8.57;;;;;;;14.66;73.88;100286.05;1758305;81;22075;-73
2022/10/26 02:03:14;;;;;;;9.27;7.30;;;;;;;14.60;73.78;100283.17;1748003;80;22099;-72
2022/10/26 02:06:25;;;;;;;9.43;8.27;;;;;;;14.60;74.27;100290.45;1743409;81;22104;-73
2022/10/26 02:09:22;;;;;;;10.47;7.83;;;;;;;14.58;74.39;100282.69;1754790;80;21496;-72
2022/10/26 02:11:51;;;;;;;9.40;7.40;;;;;;;14.61;74.31;100286.66;1755729;80;22061;-72
2022/10/26 02:14:42;;;;;;;8.70;6.77;;;;;;;14.60;74.71;100289.89;1789828;79;21527;-74
2022/10/26 02:17:21;;;;;;;8.23;7.08;;;;;;;14.60;74.71;100289.89;1691730;80;22042;-71
2022/10/26 02:19:53;;;;;;;7.67;6.87;;;;;;;14.61;74.55;100283.97;1787813;79;21003;-71
2022/10/26 02:22:24;;;;;;;9.10;7.53;;;;;;;14.61;74.55;100283.97;1797200;79;22380;-72
2022/10/26 02:24:52;;;;;;;8.53;6.80;;;;;;;14.64;74.69;100293.63;1756737;80;21609;-72
2022/10/26 02:27:24;;;;;;;7.47;6.67;;;;;;;14.66;74.69;100290.63;1788465;79;21274;-71
2022/10/26 02:29:52;;;;;;;8.00;6.70;;;;;;;14.65;74.64;100291.19;1748893;80;21473;-71
2022/10/26 02:32:20;;;;;;;7.87;6.53;;;;;;;14.70;74.63;100293.78;1771783;79;21080;-72
2022/10/26 02:34:50;;;;;;;8.23;6.53;;;;;;;14.73;74.76;100289.72;1756207;81;21784;-71
2022/10/26 02:37:19;;;;;;;7.87;6.47;;;;;;;14.75;74.54;100293.72;1754830;80;22230;-72
2022/10/26 02:39:48;;;;;;;8.77;6.60;;;;;;;14.77;74.43;100299.62;1760997;80;22100;-73
2022/10/26 02:42:15;;;;;;;7.60;6.30;;;;;;;14.77;73.96;100303.66;1784018;78;21675;-73
2022/10/26 02:44:51;;;;;;;7.83;6.07;;;;;;;14.77;73.96;100303.66;1757719;81;21770;-73
2022/10/26 02:47:18;;;;;;;8.47;6.30;;;;;;;14.78;74.09;100296.38;1751777;81;21701;-72
2022/10/26 02:49:45;;;;;;;7.87;6.23;;;;;;;14.83;74.18;100299.53;1802205;79;21452;-72
2022/10/26 02:52:17;;;;;;;7.33;6.43;;;;;;;14.83;74.18;100299.53;1802454;79;22037;-72
2022/10/26 02:55:09;;;;;;;8.13;6.70;;;;;;;14.89;73.77;100297.02;1753695;80;21516;-71
2022/10/26 02:57:41;;;;;;;8.45;6.25;;;;;;;14.89;73.77;100297.02;1739266;81;21605;-72
2022/10/26 03:00:13;;;;;;;6.87;5.70;;;;;;;14.84;74.07;100301.13;1788990;80;20995;-72
2022/10/26 03:02:42;;;;;;;6.90;6.00;;;;;;;14.84;74.07;100301.13;1757273;81;22173;-72
2022/10/26 03:05:21;;;;;;;7.20;5.77;;;;;;;14.84;73.85;100304.63;1789312;80;21047;-72
2022/10/26 03:07:48;;;;;;;8.03;5.93;;;;;;;14.81;73.83;100303.05;1727881;82;21736;-72
2022/10/26 03:10:16;;;;;;;8.37;6.57;;;;;;;14.72;73.96;100311.77;1758160;81;21596;-72
2022/10/26 03:12:44;;;;;;;8.70;6.43;;;;;;;14.72;73.96;100315.81;1733991;81;21631;-73
2022/10/26 03:15:14;;;;;;;9.90;6.80;;;;;;;14.64;74.16;100307.06;1778190;80;21695;-72
2022/10/26 03:17:42;;;;;;;9.70;7.73;;;;;;;14.64;74.16;100307.06;1789201;80;21756;-73
2022/10/26 03:20:09;;;;;;;8.30;6.70;;;;;;;14.65;74.19;100307.86;1789083;80;22183;-72
2022/10/26 03:22:37;;;;;;;11.83;7.67;;;;;;;14.61;74.15;100306.30;1789209;80;21837;-73
2022/10/26 03:25:06;;;;;;;12.03;7.80;;;;;;;14.61;74.15;100306.30;1766570;80;21690;-73
2022/10/26 03:27:34;;;;;;;9.87;7.03;;;;;;;14.58;74.35;100312.25;1755255;81;22308;-73
2022/10/26 03:30:01;;;;;;;11.50;8.77;;;;;;;14.57;74.54;100309.84;1743200;81;21726;-73
2022/10/26 03:32:28;;;;;;;10.47;8.20;;;;;;;14.53;74.49;100317.68;1763915;80;21679;-73
2022/10/26 03:34:54;;;;;;;10.77;7.83;;;;;;;14.53;74.49;100312.30;1724817;82;21765;-73
2022/10/26 03:37:21;;;;;;;8.63;7.00;;;;;;;14.53;74.68;100312.30;1768726;81;21642;-72
2022/10/26 03:39:48;;;;;;;8.17;6.53;;;;;;;14.52;74.54;100310.17;1768074;79;22152;-72
2022/10/26 03:42:15;;;;;;;7.33;6.00;;;;;;;14.54;74.58;100309.86;1764086;81;21766;-73
2022/10/26 03:44:43;;;;;;;8.90;6.57;;;;;;;14.53;74.86;100298.87;1753932;80;21519;-72
2022/10/26 03:47:10;;;;;;;12.33;6.67;;;;;;;14.53;74.50;100301.01;1757013;81;21647;-73
2022/10/26 03:49:38;;;;;;;7.50;6.67;;;;;;;14.52;74.45;100302.66;1756221;81;21534;-72
2022/10/26 03:52:05;;;;;;;8.87;7.10;;;;;;;14.49;74.14;100307.23;1735561;81;21615;-72
2022/10/26 03:54:31;;;;;;;9.50;7.03;;;;;;;14.48;74.57;100310.47;1748115;80;21461;-72
2022/10/26 03:56:59;;;;;;;10.47;7.20;;;;;;;14.48;74.57;100310.47;1758053;80;21469;-72
2022/10/26 03:59:26;;;;;;;8.33;7.03;;;;;;;14.50;74.49;100303.45;1755182;80;22051;-72
2022/10/26 04:01:53;;;;;;;7.90;6.50;;;;;;;14.55;74.46;100299.39;1751058;81;22257;-72
2022/10/26 04:04:21;;;;;;;11.60;6.63;;;;;;;14.60;74.49;100305.23;1745027;81;21626;-71
2022/10/26 04:06:48;;;;;;;9.37;7.17;;;;;;;14.61;74.41;100303.61;1765952;79;22217;-72
2022/10/26 04:09:15;;;;;;;9.90;6.83;;;;;;;14.62;74.32;100305.20;1760752;79;21389;-73
2022/10/26 04:11:43;;;;;;;9.67;7.17;;;;;;;14.60;74.15;100301.99;1767761;79;21561;-72
2022/10/26 04:14:10;;;;;;;8.80;7.20;;;;;;;14.60;74.15;100301.99;1741876;81;21485;-72
2022/10/26 04:16:38;;;;;;;9.47;7.20;;;;;;;14.63;74.18;100301.41;1781449;79;21419;-72
2022/10/26 04:19:06;;;;;;;8.53;6.53;;;;;;;14.65;74.13;100305.17;1775671;79;21651;-71
2022/10/26 04:21:34;;;;;;;12.43;7.20;;;;;;;14.65;74.07;100307.31;1769322;80;21577;-72
2022/10/26 04:24:02;;;;;;;10.23;7.00;;;;;;;14.60;74.29;100296.62;1751781;80;21576;-72
2022/10/26 04:26:30;;;;;;;8.53;6.93;;;;;;;14.63;73.79;100308.13;1784603;79;21511;-72
2022/10/26 04:28:58;;;;;;;8.70;7.07;;;;;;;14.63;73.79;100308.13;1777549;80;21806;-72
2022/10/26 04:31:27;;;;;;;9.70;7.23;;;;;;;14.63;73.91;100305.99;1766956;80;21758;-73
2022/10/26 04:33:55;;;;;;;11.37;7.57;;;;;;;14.63;73.91;100297.93;1775882;78;21465;-72
2022/10/26 04:36:22;;;;;;;9.03;6.80;;;;;;;14.62;74.15;100296.34;1779133;80;21769;-72
2022/10/26 04:38:53;;;;;;;9.43;7.30;;;;;;;14.63;73.99;100293.90;1729180;81;21508;-72
2022/10/26 04:41:20;;;;;;;9.10;7.17;;;;;;;14.63;73.99;100293.90;1765774;79;21663;-72
2022/10/26 04:43:48;;;;;;;11.60;7.60;;;;;;;14.64;74.05;100300.34;1769262;80;21453;-72
2022/10/26 04:46:16;;;;;;;10.23;7.63;;;;;;;14.63;73.99;100300.63;1756141;80;21522;-72
2022/10/26 04:48:42;;;;;;;11.00;7.00;;;;;;;14.61;74.01;100292.86;1740435;80;21734;-72
2022/10/26 04:51:10;;;;;;;8.73;7.07;;;;;;;14.61;74.01;100292.86;1776379;79;21976;-73
2022/10/26 04:53:36;;;;;;;12.87;7.60;;;;;;;14.58;73.82;100292.61;1780380;80;22157;-73
2022/10/26 04:56:04;;;;;;;10.77;7.17;;;;;;;14.58;73.77;100293.95;1763449;79;22032;-71
2022/10/26 04:58:31;;;;;;;11.23;7.47;;;;;;;14.52;73.73;100294.59;1776522;79;21565;-72
2022/10/26 05:00:57;;;;;;;8.37;7.17;;;;;;;14.44;73.94;100291.16;1711784;82;21919;-71
2022/10/26 05:03:25;;;;;;;11.17;7.57;;;;;;;14.44;73.94;100291.16;1754101;81;22018;-72
2022/10/26 05:05:51;;;;;;;32.20;10.77;;;;;;;14.43;73.89;100295.73;1782734;80;21663;-72
2022/10/26 05:08:18;;;;;;;20.90;9.63;;;;;;;14.45;73.76;100294.13;1756808;81;21431;-72
2022/10/26 05:10:49;;;;;;;11.23;7.60;;;;;;;14.45;73.76;100294.13;1772697;80;21359;-72
2022/10/26 05:13:17;;;;;;;8.65;7.00;;;;;;;14.44;74.19;100301.36;1776600;80;21625;-73
2022/10/26 05:15:44;;;;;;;10.57;7.53;;;;;;;14.46;74.18;100307.25;1772515;80;21187;-73
2022/10/26 05:18:11;;;;;;;34.80;11.53;;;;;;;14.47;74.24;100309.39;1789009;80;21426;-73
2022/10/26 05:20:39;;;;;;;35.87;12.30;;;;;;;14.47;74.32;100307.50;1787853;80;21273;-74
2022/10/26 05:23:07;;;;;;;19.30;9.33;;;;;;;14.54;74.37;100299.11;1758917;80;21492;-73
2022/10/26 05:25:35;;;;;;;28.23;10.90;;;;;;;14.69;74.40;100312.36;1735608;81;21691;-72
2022/10/26 05:28:06;;;;;;;12.53;7.17;;;;;;;14.69;74.40;100312.36;1783328;80;21803;-72
2022/10/26 05:30:35;;;;;;;11.27;7.07;;;;;;;14.71;74.33;100312.88;1756362;81;21918;-71
2022/10/26 05:33:02;;;;;;;11.30;7.13;;;;;;;14.87;74.04;100319.36;1777964;80;22250;-73
2022/10/26 05:35:31;;;;;;;21.70;9.63;;;;;;;14.87;74.04;100319.36;1760577;81;21679;-72
2022/10/26 05:37:58;;;;;;;16.30;8.03;;;;;;;14.90;74.06;100319.58;1767460;80;21645;-72
2022/10/26 05:40:26;;;;;;;13.27;7.33;;;;;;;14.96;73.98;100321.11;1750555;81;21678;-73
2022/10/26 05:42:59;;;;;;;16.37;7.83;;;;;;;15.01;73.83;100326.97;1740490;80;21783;-72
2022/10/26 05:45:28;;;;;;;21.77;8.43;;;;;;;15.04;73.66;100322.36;1800627;78;21731;-73
2022/10/26 05:47:56;;;;;;;16.47;7.87;;;;;;;15.03;73.50;100326.11;1785072;80;21692;-73
2022/10/26 05:50:22;;;;;;;9.83;6.50;;;;;;;15.05;73.43;100330.67;1782887;80;21668;-73
2022/10/26 05:52:51;;;;;;;18.40;8.87;;;;;;;15.09;73.37;100334.36;1774583;79;21683;-72
2022/10/26 05:55:19;;;;;;;12.73;6.73;;;;;;;15.11;73.24;100330.84;1787143;80;21715;-73
2022/10/26 05:57:50;;;;;;;14.30;7.40;;;;;;;15.14;73.07;100333.50;1750256;80;21711;-72
2022/10/26 06:00:24;;;;;;;13.53;7.33;;;;;;;15.13;72.93;100331.89;1786980;80;21765;-73
2022/10/26 06:03:08;;;;;;;11.17;6.27;;;;;;;15.15;72.89;100333.20;1752030;81;21762;-72
2022/10/26 06:05:53;;;;;;;7.87;5.77;;;;;;;15.19;72.83;100332.06;1779328;80;22142;-73
2022/10/26 06:08:21;;;;;;;7.73;6.07;;;;;;;15.23;72.74;100339.28;1718128;80;21849;-73
2022/10/26 06:10:49;;;;;;;9.27;6.43;;;;;;;15.28;72.65;100332.20;1730443;80;21637;-74
2022/10/26 06:13:16;;;;;;;16.77;7.00;;;;;;;15.32;72.50;100339.39;1727581;83;21692;-72
2022/10/26 06:15:57;;;;;;;16.00;7.00;;;;;;;15.38;72.41;100333.39;1753813;81;21766;-72
2022/10/26 06:18:39;;;;;;;10.48;6.47;;;;;;;15.42;72.27;100330.35;1787184;79;21719;-74
2022/10/26 06:21:23;;;;;;;13.27;6.80;;;;;;;15.47;72.11;100335.11;1757543;80;21022;-72
2022/10/26 06:24:10;;;;;;;27.57;9.40;;;;;;;15.52;71.97;100338.25;1772688;80;21671;-72
2022/10/26 06:27:00;;;;;;;29.63;8.60;;;;;;;15.57;71.89;100337.39;1754198;80;21648;-73
2022/10/26 06:29:53;;;;;;;31.57;9.47;;;;;;;15.65;71.74;100346.12;1737775;82;21714;-72
2022/10/26 06:32:20;;;;;;;27.37;9.33;;;;;;;15.68;71.56;100349.05;1760651;81;21828;-72
2022/10/26 06:34:49;;;;;;;13.37;6.73;;;;;;;15.73;71.34;100346.00;1784176;80;21785;-73
2022/10/26 06:37:16;;;;;;;15.33;6.93;;;;;;;15.74;71.15;100345.72;1779840;80;21098;-73
2022/10/26 06:39:47;;;;;;;27.43;8.60;;;;;;;15.81;70.98;100349.37;1783405;79;22342;-73
2022/10/26 06:42:14;;;;;;;16.77;6.77;;;;;;;15.84;70.84;100355.52;1781033;80;21678;-73
2022/10/26 06:44:43;;;;;;;29.03;7.47;;;;;;;15.90;70.63;100352.98;1777697;79;21439;-72
2022/10/26 06:47:20;;;;;;;14.73;7.00;;;;;;;15.90;70.63;100352.98;1784464;79;21023;-73
2022/10/26 06:50:02;;;;;;;14.93;7.70;;;;;;;15.95;70.54;100356.92;1770009;80;22140;-73
2022/10/26 06:52:49;;;;;;;12.55;6.62;;;;;;;16.04;70.40;100361.88;1778908;80;20999;-73
2022/10/26 06:55:17;;;;;;;18.57;7.40;;;;;;;16.08;70.26;100354.78;1777850;80;21039;-72
2022/10/26 06:57:44;;;;;;;18.63;8.63;;;;;;;16.14;70.04;100352.80;1781674;80;21083;-73
2022/10/26 07:00:21;;;;;;;8.67;6.27;;;;;;;16.21;69.93;100359.14;1784243;80;20952;-72
2022/10/26 07:02:48;;;;;;;9.27;6.10;;;;;;;16.26;69.75;100367.14;1780650;79;21125;-72
2022/10/26 07:05:17;;;;;;;8.67;5.83;;;;;;;16.31;69.62;100366.47;1784460;79;21000;-70
2022/10/26 07:07:46;;;;;;;8.30;5.87;;;;;;;16.35;69.38;100368.02;1784446;80;21101;-72
2022/10/26 07:10:13;;;;;;;13.13;6.60;;;;;;;16.40;69.01;100367.38;1784103;79;21535;-71
2022/10/26 07:12:40;;;;;;;6.83;5.60;;;;;;;16.49;69.08;100374.22;1784863;79;21125;-74
2022/10/26 07:15:09;;;;;;;13.83;6.37;;;;;;;16.54;68.60;100371.41;1784296;80;20948;-72
2022/10/26 07:17:44;;;;;;;7.60;5.57;;;;;;;16.57;68.43;100376.20;1784086;80;20987;-72
2022/10/26 07:20:11;;;;;;;8.00;5.73;;;;;;;16.60;68.19;100380.98;1783488;80;21007;-73
2022/10/26 07:22:41;;;;;;;8.77;5.70;;;;;;;16.60;67.91;100380.98;1784526;80;21015;-73
2022/10/26 07:25:08;;;;;;;10.37;5.87;;;;;;;16.59;67.74;100395.58;1784257;79;21580;-72
2022/10/26 07:27:35;;;;;;;10.07;5.87;;;;;;;16.60;67.66;100387.73;1784246;80;21190;-72
2022/10/26 07:30:01;;;;;;;8.80;5.90;;;;;;;16.64;67.54;100387.37;1784420;79;20964;-72
2022/10/26 07:32:29;;;;;;;9.20;6.00;;;;;;;16.68;67.40;100388.11;1784354;80;21047;-73
2022/10/26 07:34:57;;;;;;;8.63;5.93;;;;;;;16.70;67.21;100386.72;1784301;79;21067;-70
2022/10/26 07:37:23;;;;;;;12.30;5.90;;;;;;;16.72;67.02;100390.48;1768827;80;21522;-72
2022/10/26 07:39:50;;;;;;;9.77;5.80;;;;;;;16.75;66.90;100395.27;1756166;81;21224;-70
2022/10/26 07:42:18;;;;;;;9.27;5.50;;;;;;;16.75;66.74;100395.27;1732472;80;21522;-70
2022/10/26 07:44:45;;;;;;;9.27;5.73;;;;;;;16.74;66.67;100394.45;1733556;80;21007;-70
2022/10/26 07:47:12;;;;;;;9.37;5.40;;;;;;;16.78;66.68;100400.89;1789289;80;21050;-70
2022/10/26 07:49:39;;;;;;;7.17;4.70;;;;;;;16.79;66.28;100399.78;1756373;80;21051;-72
2022/10/26 07:52:06;;;;;;;7.73;4.47;;;;;;;16.78;66.11;100407.63;1770820;80;21216;-72
2022/10/26 07:54:34;;;;;;;6.83;4.70;;;;;;;16.79;65.91;100408.42;1749981;81;21007;-72
2022/10/26 07:57:01;;;;;;;9.97;5.10;;;;;;;16.76;65.81;100413.87;1788089;80;20952;-71
2022/10/26 07:59:28;;;;;;;6.80;4.33;;;;;;;16.75;65.80;100405.53;1789039;80;21038;-72
2022/10/26 08:01:55;;;;;;;6.10;4.37;;;;;;;16.74;65.87;100404.44;1759235;80;21494;-70
2022/10/26 08:04:21;;;;;;;6.40;4.13;;;;;;;16.73;65.81;100410.95;1756391;81;21106;-70
2022/10/26 08:06:47;;;;;;;10.30;4.53;;;;;;;16.74;65.83;100407.14;1788982;80;21459;-72
2022/10/26 08:09:14;;;;;;;11.47;4.60;;;;;;;16.74;65.76;100411.98;1757572;81;21534;-70
2022/10/26 08:11:41;;;;;;;6.20;4.30;;;;;;;16.72;65.83;100414.75;1758040;81;21011;-70
2022/10/26 08:14:09;;;;;;;6.70;4.00;;;;;;;16.70;65.92;100425.83;1788759;80;21046;-71
2022/10/26 08:16:39;;;;;;;7.20;4.50;;;;;;;16.70;65.89;100416.94;1757557;81;21154;-71
2022/10/26 08:19:06;;;;;;;6.70;4.23;;;;;;;16.67;65.92;100422.38;1756002;81;21047;-71
2022/10/26 08:21:32;;;;;;;9.03;4.67;;;;;;;16.69;66.02;100418.05;1789080;80;21042;-72
2022/10/26 08:23:59;;;;;;;6.80;4.13;;;;;;;16.71;66.01;100416.63;1757653;81;21011;-70
2022/10/26 08:26:26;;;;;;;8.83;4.67;;;;;;;16.77;65.96;100426.80;1756122;81;21518;-71
2022/10/26 08:28:53;;;;;;;5.67;4.30;;;;;;;16.77;65.96;100416.02;1788876;80;21258;-70
2022/10/26 08:31:19;;;;;;;9.23;5.17;;;;;;;16.81;65.92;100416.47;1757865;81;20944;-72
2022/10/26 08:33:47;;;;;;;9.50;4.77;;;;;;;16.85;65.93;100423.41;1755967;81;21090;-71
2022/10/26 08:36:18;;;;;;;18.77;5.63;;;;;;;16.92;65.75;100424.34;1788832;80;20996;-71
2022/10/26 08:38:42;;;;;;;10.47;5.00;;;;;;;16.97;65.57;100425.02;1757608;81;21676;-70
2022/10/26 08:41:09;;;;;;;11.87;5.07;;;;;;;17.04;65.62;100425.39;1756298;81;21346;-70
2022/10/26 08:43:51;;;;;;;7.00;4.57;;;;;;;17.13;65.40;100423.34;1788954;80;21000;-70
2022/10/26 08:46:33;;;;;;;7.60;4.60;;;;;;;17.22;65.10;100432.32;1757670;81;20956;-70
2022/10/26 08:49:23;;;;;;;7.35;4.22;;;;;;;17.29;64.86;100430.79;1755865;81;21444;-70
2022/10/26 08:51:54;;;;;;;7.43;4.30;;;;;;;17.35;64.69;100429.58;1777315;80;21181;-70
2022/10/26 08:54:34;;;;;;;;;;;;;;;17.43;64.57;100450.20;1791237;80;20936;-70
2022/10/26 08:57:12;;;;;;;6.13;4.30;;;;;;;17.43;64.06;100438.84;1757601;81;20405;-70
2022/10/26 09:00:03;;;;;;;7.93;4.03;;;;;;;17.44;64.07;100441.80;1757720;81;21096;-69
2022/10/26 09:02:29;;;;;;;6.57;4.23;;;;;;;17.50;63.88;100437.06;1775386;79;21027;-70
2022/10/26 09:05:00;;;;;;;6.17;4.30;;;;;;;17.55;63.70;100446.41;1787685;79;20987;-71
2022/10/26 09:07:32;;;;;;;;;;;;;;;17.59;63.52;100441.42;1759993;81;21042;-73
2022/10/26 09:10:22;;;;;;;7.70;4.30;;;;;;;17.64;63.34;100450.53;1788249;80;20179;-71
2022/10/26 09:13:00;;;;;;;8.57;4.47;;;;;;;17.65;63.10;100454.27;1757396;81;21570;-71
2022/10/26 09:15:56;;;;;;;7.70;4.27;;;;;;;17.65;63.10;100457.52;1746235;81;20995;-71
2022/10/26 09:18:46;;;;;;;13.23;4.47;;;;;;;17.64;63.01;100458.64;1756211;81;21128;-72
2022/10/26 09:21:43;;;;;;;7.37;3.77;;;;;;;17.64;62.91;100455.94;1762604;78;21234;-72
2022/10/26 09:24:34;;;;;;;6.10;3.73;;;;;;;17.61;62.38;100451.94;1698399;81;20997;-72
2022/10/26 09:27:30;;;;;;;11.60;4.40;;;;;;;17.67;62.13;100449.89;1727587;82;20938;-71
2022/10/26 09:30:00;;;;;;;7.53;3.40;;;;;;;17.73;61.74;100450.02;1759778;80;21039;-71
2022/10/26 09:32:36;;;;;;;6.20;3.50;;;;;;;17.77;61.47;100451.05;1757648;81;21558;-71
2022/10/26 09:35:20;;;;;;;11.73;4.13;;;;;;;17.78;61.37;100452.09;1757731;81;21106;-71
2022/10/26 09:37:54;;;;;;;5.53;3.40;;;;;;;17.81;61.26;100450.67;1757221;81;21038;-72
2022/10/26 09:40:56;;;;;;;4.60;3.30;;;;;;;17.88;61.28;100451.59;1757446;81;21055;-72
2022/10/26 09:43:34;;;;;;;7.12;3.20;;;;;;;17.91;61.04;100451.77;1757925;81;21217;-72
2022/10/26 09:46:02;;;;;;;5.93;3.27;;;;;;;17.99;60.74;100448.88;1757752;81;21617;-72
2022/10/26 09:48:52;;;;;;;6.93;3.70;;;;;;;18.04;60.66;100454.95;1757616;81;21289;-72
2022/10/26 09:51:19;;;;;;;5.07;3.83;;;;;;;18.12;60.66;100453.95;1763108;80;20967;-71
2022/10/26 09:53:46;;;;;;;7.10;3.47;;;;;;;18.23;60.47;100460.70;1787177;79;21010;-72
2022/10/26 09:56:14;;;;;;;20.83;5.17;;;;;;;18.32;60.26;100453.97;1788654;80;21028;-72
2022/10/26 09:58:49;;;;;;;11.43;3.90;;;;;;;18.40;60.15;100451.88;1757689;81;21015;-72
2022/10/26 10:01:33;;;;;;;7.13;3.90;;;;;;;18.45;59.88;100443.05;1786249;79;21224;-72
2022/10/26 10:04:19;;;;;;;16.23;4.43;;;;;;;18.45;59.79;100450.37;1757718;81;20975;-72
2022/10/26 10:06:48;;;;;;;11.83;4.20;;;;;;;18.45;59.77;100471.45;1788453;80;20983;-71
2022/10/26 10:09:19;;;;;;;11.50;4.27;;;;;;;18.39;59.91;100456.46;1757180;81;21493;-71
2022/10/26 10:11:53;;;;;;;8.18;3.80;;;;;;;18.34;60.21;100462.02;1788327;79;20984;-71
2022/10/26 10:14:23;;;;;;;13.50;4.30;;;;;;;18.30;60.26;100457.56;1757150;81;21720;-72
2022/10/26 10:17:01;;;;;;;8.73;3.60;;;;;;;18.29;60.57;100458.09;1788906;80;20956;-71
2022/10/26 10:19:33;;;;;;;19.83;4.73;;;;;;;18.24;60.22;100462.30;1757228;80;21518;-71
2022/10/26 10:22:10;;;;;;;15.30;4.70;;;;;;;18.15;60.27;100454.13;1787706;80;21494;-72
2022/10/26 10:24:39;;;;;;;6.03;3.40;;;;;;;18.10;60.41;100462.91;1719740;81;21552;-72
2022/10/26 10:27:17;;;;;;;5.13;3.20;;;;;;;18.10;60.46;100462.39;1768634;80;21642;-72
2022/10/26 10:29:51;;;;;;;20.80;5.63;;;;;;;18.16;60.51;100456.27;1757828;81;20956;-71
2022/10/26 10:32:30;;;;;;;15.17;4.93;;;;;;;18.22;60.51;100465.85;1788939;80;20944;-72
2022/10/26 10:35:00;;;;;;;5.80;4.00;;;;;;;18.26;60.34;100462.23;1757823;81;21482;-71
2022/10/26 10:37:33;;;;;;;6.92;3.70;;;;;;;18.25;60.49;100464.67;1736786;81;21550;-71
2022/10/26 10:40:08;;;;;;;7.50;3.80;;;;;;;18.24;60.75;100454.19;1757206;80;21540;-72
2022/10/26 10:42:39;;;;;;;6.10;4.03;;;;;;;18.27;60.80;100463.03;1755877;80;21055;-72
2022/10/26 10:45:21;;;;;;;6.73;4.23;;;;;;;18.28;60.60;100463.27;1754875;80;21486;-72
2022/10/26 10:48:15;;;;;;;5.93;3.97;;;;;;;18.24;60.56;100465.80;1739204;80;21074;-71
2022/10/26 10:50:58;;;;;;;20.40;6.63;;;;;;;18.20;60.78;100462.68;1757558;81;20928;-71
2022/10/26 10:53:48;;;;;;;8.47;4.67;;;;;;;18.18;60.72;100463.53;1761359;80;22231;-71
2022/10/26 10:56:41;;;;;;;9.23;4.60;;;;;;;18.17;60.62;100463.30;1759858;80;21047;-71
2022/10/26 10:59:45;;;;;;;6.30;4.10;;;;;;;18.11;60.25;100463.18;1788900;80;21031;-71
2022/10/26 11:02:23;;;;;;;8.20;4.50;;;;;;;18.09;60.25;100463.47;1748508;81;20984;-71
2022/10/26 11:05:06;;;;;;;6.73;4.20;;;;;;;18.17;60.24;100464.09;1755734;81;21047;-71
2022/10/26 11:07:38;;;;;;;8.83;4.90;;;;;;;18.29;59.68;100466.20;1777143;80;21150;-71
2022/10/26 11:10:05;;;;;;;6.87;4.70;;;;;;;18.33;59.19;100456.91;1765995;81;21435;-71
2022/10/26 11:12:37;;;;;;;8.70;4.90;;;;;;;18.31;59.11;100453.18;1766700;79;21090;-72
2022/10/26 11:15:13;;;;;;;7.62;4.60;;;;;;;18.30;59.18;100458.36;1768631;79;21027;-71
2022/10/26 11:18:03;;;;;;;6.57;4.33;;;;;;;18.28;59.23;100455.94;1766216;79;21092;-71
2022/10/26 11:20:29;;;;;;;6.30;4.47;;;;;;;18.23;59.10;100449.89;1706341;80;21500;-71
2022/10/26 11:23:15;;;;;;;6.73;4.10;;;;;;;18.17;59.39;100455.19;1787316;79;20983;-71
2022/10/26 11:26:05;;;;;;;8.83;3.80;;;;;;;18.14;59.42;100459.30;1757464;81;20967;-73
2022/10/26 11:28:46;;;;;;;5.37;3.53;;;;;;;18.11;59.56;100457.77;1787149;79;21050;-72
2022/10/26 11:31:20;;;;;;;6.75;3.67;;;;;;;18.01;59.55;100463.67;1757068;81;21111;-70
2022/10/26 11:34:25;;;;;;;6.83;3.57;;;;;;;17.94;59.61;100460.62;1753400;81;21433;-72
2022/10/26 11:37:19;;;;;;;6.57;3.97;;;;;;;17.96;59.80;100467.84;1758142;81;20940;-73
2022/10/26 11:40:11;;;;;;;6.57;3.97;;;;;;;18.01;60.04;100462.88;1787935;79;20995;-70
2022/10/26 11:42:44;;;;;;;8.27;3.90;;;;;;;18.06;59.91;100464.09;1757046;81;21030;-72
2022/10/26 11:45:30;;;;;;;6.90;4.27;;;;;;;18.09;59.51;100454.57;1736796;81;21034;-71
2022/10/26 11:48:12;;;;;;;6.43;3.90;;;;;;;18.07;58.85;100479.22;1757491;81;21790;-71